Time;durP1;ratioP1;P1;durP2;ratioP2;P2;SDS_P1;SDS_P2;PMS_P1;PMS_P2;Temp;Humidity;BMP_temperature;BMP_pressure;BME280_temperature;BME280_humidity;BME280_pressure;Samples;Min_cycle;Max_cycle;Signal;HPM_P1;HPM_P2
2021/06/24 00:00:46;;;;;;;4.88;1.63;;;15.20;99.90;;;;;;5047144;28;20026;-73
2021/06/24 00:03:12;;;;;;;1.60;1.38;;;15.20;99.90;;;;;;5045963;28;20044;-73
2021/06/24 00:05:39;;;;;;;5.13;2.13;;;15.20;99.90;;;;;;5046036;28;20026;-75
2021/06/24 00:08:06;;;;;;;8.35;1.75;;;15.20;99.90;;;;;;5047119;28;20065;-72
2021/06/24 00:10:32;;;;;;;4.15;1.85;;;15.10;99.90;;;;;;5047116;28;20071;-73
2021/06/24 00:12:58;;;;;;;5.22;1.42;;;15.10;99.90;;;;;;5047551;28;20047;-73
2021/06/24 00:15:24;;;;;;;5.28;2.03;;;15.10;99.90;;;;;;5046716;28;20073;-71
2021/06/24 00:17:49;;;;;;;3.00;1.92;;;15.00;99.90;;;;;;5046771;28;20402;-72
2021/06/24 00:20:15;;;;;;;3.30;1.63;;;15.10;99.90;;;;;;5046942;28;20034;-72
2021/06/24 00:22:41;;;;;;;2.28;1.58;;;15.00;99.90;;;;;;5046463;28;20029;-72
2021/06/24 00:25:07;;;;;;;4.45;1.90;;;15.00;99.90;;;;;;5046836;28;20039;-72
2021/06/24 00:27:33;;;;;;;2.35;1.83;;;15.00;99.90;;;;;;5046669;28;20040;-72
2021/06/24 00:29:59;;;;;;;4.35;2.17;;;15.10;99.90;;;;;;5046472;28;20021;-72
2021/06/24 00:32:24;;;;;;;6.13;1.98;;;15.10;99.90;;;;;;5044323;28;20466;-73
2021/06/24 00:34:50;;;;;;;10.88;1.88;;;15.10;99.90;;;;;;5046558;28;20088;-71
2021/06/24 00:37:16;;;;;;;7.85;1.83;;;15.00;99.90;;;;;;5046097;28;20025;-70
2021/06/24 00:39:41;;;;;;;2.92;1.33;;;15.00;99.90;;;;;;5045033;28;20064;-70
2021/06/24 00:42:08;;;;;;;3.47;1.92;;;15.00;99.90;;;;;;5046392;28;20116;-71
2021/06/24 00:44:33;;;;;;;3.00;1.77;;;15.00;99.90;;;;;;5046179;28;20096;-71
2021/06/24 00:46:59;;;;;;;5.22;1.98;;;15.00;99.90;;;;;;5045260;28;20021;-73
2021/06/24 00:49:25;;;;;;;10.70;1.60;;;15.00;99.90;;;;;;5044733;28;20117;-71
2021/06/24 00:51:51;;;;;;;3.00;1.58;;;15.00;99.90;;;;;;5046006;28;20053;-71
2021/06/24 00:54:16;;;;;;;3.58;1.65;;;15.00;99.90;;;;;;5046298;28;20029;-70
2021/06/24 00:56:42;;;;;;;7.82;1.85;;;15.00;99.90;;;;;;5046000;28;20041;-72
2021/06/24 00:59:07;;;;;;;4.30;1.77;;;15.00;99.90;;;;;;5044718;28;20083;-71
2021/06/24 01:01:34;;;;;;;2.15;1.27;;;15.00;99.90;;;;;;5046174;28;20096;-72
2021/06/24 01:04:00;;;;;;;8.63;1.80;;;15.00;99.90;;;;;;5045651;28;20045;-73
2021/06/24 01:06:26;;;;;;;3.58;1.85;;;15.00;99.90;;;;;;5046290;28;20025;-73
2021/06/24 01:08:51;;;;;;;3.70;1.73;;;15.00;99.90;;;;;;5045738;28;20056;-73
2021/06/24 01:11:18;;;;;;;3.60;1.50;;;15.00;99.90;;;;;;5045573;28;20157;-72
2021/06/24 01:13:46;;;;;;;1.50;1.17;;;15.00;99.90;;;;;;5046117;28;20032;-72
2021/06/24 01:16:13;;;;;;;6.45;1.70;;;15.00;99.90;;;;;;5045464;28;20093;-72
2021/06/24 01:18:38;;;;;;;4.70;1.90;;;15.00;99.90;;;;;;5044472;28;20032;-72
2021/06/24 01:21:04;;;;;;;2.55;1.40;;;14.90;99.90;;;;;;5041575;28;20034;-73
2021/06/24 01:23:39;;;;;;;2.90;1.80;;;14.90;99.90;;;;;;5042063;28;20033;-73
2021/06/24 01:26:05;;;;;;;4.65;1.75;;;14.90;99.90;;;;;;5035837;28;20036;-72
2021/06/24 01:28:31;;;;;;;4.65;2.28;;;14.90;99.90;;;;;;5045750;28;20013;-73
2021/06/24 01:30:56;;;;;;;3.35;1.88;;;14.90;99.90;;;;;;5029036;28;20451;-72
2021/06/24 01:33:24;;;;;;;6.82;2.60;;;14.80;99.90;;;;;;5025684;28;20040;-72
2021/06/24 01:35:55;;;;;;;4.97;2.45;;;14.80;99.90;;;;;;5025630;28;20098;-73
2021/06/24 01:38:21;;;;;;;2.78;2.00;;;14.80;99.90;;;;;;5025374;28;20058;-71
2021/06/24 01:40:46;;;;;;;8.15;2.33;;;14.80;99.90;;;;;;5025599;28;20034;-72
2021/06/24 01:43:12;;;;;;;4.50;1.85;;;14.80;99.90;;;;;;5025140;28;20026;-72
2021/06/24 01:45:50;;;;;;;2.97;1.92;;;14.80;99.90;;;;;;5025046;28;20454;-72
2021/06/24 01:48:15;;;;;;;6.07;2.47;;;14.70;99.90;;;;;;5025448;28;20030;-74
2021/06/24 01:50:42;;;;;;;2.65;1.90;;;14.70;99.90;;;;;;5024815;28;20033;-72
2021/06/24 01:53:08;;;;;;;3.97;1.92;;;14.70;99.90;;;;;;5025105;28;20040;-72
2021/06/24 01:55:35;;;;;;;2.42;1.77;;;14.70;99.90;;;;;;5025487;28;20038;-72
2021/06/24 01:58:05;;;;;;;2.53;1.58;;;14.70;99.90;;;;;;5025159;28;20022;-72
2021/06/24 02:00:31;;;;;;;3.40;1.45;;;14.80;99.90;;;;;;5025450;28;20030;-71
2021/06/24 02:02:57;;;;;;;4.40;1.98;;;14.80;99.90;;;;;;5025338;28;20120;-71
2021/06/24 02:05:23;;;;;;;3.30;1.73;;;14.80;99.90;;;;;;5039970;28;20116;-70
2021/06/24 02:07:49;;;;;;;2.92;2.03;;;14.80;99.90;;;;;;5025232;28;20022;-71
2021/06/24 02:10:16;;;;;;;4.18;2.30;;;14.80;99.90;;;;;;5025215;28;20022;-72
2021/06/24 02:12:42;;;;;;;3.13;2.15;;;14.80;99.90;;;;;;5024536;28;20022;-72
2021/06/24 02:15:11;;;;;;;2.65;1.70;;;14.80;99.90;;;;;;5025376;28;20042;-72
2021/06/24 02:17:38;;;;;;;3.58;1.73;;;14.80;99.90;;;;;;5025019;28;20018;-73
2021/06/24 02:20:10;;;;;;;5.00;2.60;;;14.80;99.90;;;;;;5024804;28;20030;-72
2021/06/24 02:22:35;;;;;;;2.25;1.58;;;14.80;99.90;;;;;;5025177;28;20029;-72
2021/06/24 02:25:04;;;;;;;2.05;1.55;;;14.80;99.90;;;;;;5025014;28;20025;-74
2021/06/24 02:27:30;;;;;;;4.13;2.42;;;14.70;99.90;;;;;;5024841;28;20036;-72
2021/06/24 02:29:56;;;;;;;3.15;1.98;;;14.70;99.90;;;;;;5025034;28;20124;-71
2021/06/24 02:32:22;;;;;;;5.03;2.45;;;14.70;99.90;;;;;;5024866;28;20573;-73
2021/06/24 02:34:48;;;;;;;3.28;2.13;;;14.60;99.90;;;;;;5024282;28;20034;-73
2021/06/24 02:37:14;;;;;;;15.55;3.67;;;14.60;99.90;;;;;;5025093;28;20026;-73
2021/06/24 02:39:40;;;;;;;3.55;2.17;;;14.60;99.90;;;;;;5039660;28;20030;-73
2021/06/24 02:42:06;;;;;;;4.75;2.92;;;14.50;99.90;;;;;;5024561;28;20033;-72
2021/06/24 02:44:32;;;;;;;7.05;2.65;;;14.50;99.90;;;;;;5024948;28;20029;-74
2021/06/24 02:46:57;;;;;;;5.50;2.83;;;14.50;99.90;;;;;;5023486;28;20056;-72
2021/06/24 02:49:23;;;;;;;7.85;2.75;;;14.40;99.90;;;;;;5024433;28;20152;-71
2021/06/24 02:51:49;;;;;;;5.10;2.80;;;14.40;99.90;;;;;;5024204;28;20042;-72
2021/06/24 02:54:15;;;;;;;13.15;2.90;;;14.40;99.90;;;;;;5024344;28;20109;-72
2021/06/24 02:56:42;;;;;;;9.73;3.38;;;14.40;99.90;;;;;;5027514;28;20038;-73
2021/06/24 02:59:08;;;;;;;5.20;3.25;;;14.30;99.90;;;;;;5028803;28;20065;-72
2021/06/24 03:01:36;;;;;;;5.47;3.10;;;14.30;99.90;;;;;;5028258;28;20025;-71
2021/06/24 03:04:02;;;;;;;4.50;2.88;;;14.30;99.90;;;;;;5043811;28;20014;-73
2021/06/24 03:06:27;;;;;;;3.65;2.50;;;14.20;99.90;;;;;;5028531;28;20083;-71
2021/06/24 03:08:53;;;;;;;4.97;2.50;;;14.30;99.90;;;;;;5028075;28;20026;-71
2021/06/24 03:11:19;;;;;;;4.78;2.78;;;14.20;99.90;;;;;;5027889;28;20036;-72
2021/06/24 03:13:49;;;;;;;4.55;2.38;;;14.20;99.90;;;;;;5028485;28;20072;-72
2021/06/24 03:16:16;;;;;;;4.05;2.50;;;14.20;99.90;;;;;;5028146;28;20061;-72
2021/06/24 03:18:42;;;;;;;8.73;2.35;;;14.20;99.90;;;;;;5043199;28;20431;-72
2021/06/24 03:21:07;;;;;;;4.50;2.85;;;14.20;99.90;;;;;;5028190;28;20041;-73
2021/06/24 03:23:33;;;;;;;12.00;3.28;;;14.10;99.90;;;;;;5027880;28;20061;-74
2021/06/24 03:25:59;;;;;;;6.03;2.80;;;14.10;99.90;;;;;;5028298;28;20037;-72
2021/06/24 03:28:24;;;;;;;5.90;2.47;;;14.10;99.90;;;;;;5027721;28;20030;-73
2021/06/24 03:30:50;;;;;;;8.68;3.40;;;14.10;99.90;;;;;;5043061;28;20065;-74
2021/06/24 03:33:18;;;;;;;4.15;2.72;;;14.10;99.90;;;;;;5027890;28;20459;-74
2021/06/24 03:35:47;;;;;;;12.07;3.15;;;14.10;99.90;;;;;;5028171;28;20044;-75
2021/06/24 03:38:13;;;;;;;5.25;2.85;;;14.00;99.90;;;;;;5027500;28;20018;-71
2021/06/24 03:40:39;;;;;;;7.05;3.40;;;14.10;99.90;;;;;;5027902;28;20045;-73
2021/06/24 03:43:04;;;;;;;4.90;2.55;;;14.10;99.90;;;;;;5027730;28;20491;-73
2021/06/24 03:45:31;;;;;;;11.52;3.00;;;14.00;99.90;;;;;;5027700;28;20054;-72
2021/06/24 03:47:57;;;;;;;19.60;2.28;;;14.10;99.90;;;;;;5043065;28;20434;-72
2021/06/24 03:50:23;;;;;;;6.93;2.25;;;14.00;99.90;;;;;;5042751;28;20036;-71
2021/06/24 03:52:48;;;;;;;4.30;2.85;;;14.10;99.90;;;;;;5027139;28;20041;-72
2021/06/24 03:55:19;;;;;;;6.20;3.03;;;14.10;99.90;;;;;;5027264;28;20049;-75
2021/06/24 03:57:45;;;;;;;4.88;2.90;;;14.00;99.90;;;;;;5027146;28;20026;-70
2021/06/24 04:00:11;;;;;;;6.20;2.67;;;14.00;99.90;;;;;;5027313;28;20120;-73
2021/06/24 04:02:37;;;;;;;5.43;2.65;;;14.00;99.90;;;;;;5027184;28;20026;-73
2021/06/24 04:05:03;;;;;;;5.25;3.00;;;14.00;99.90;;;;;;5027164;28;20101;-74
2021/06/24 04:07:28;;;;;;;6.85;3.03;;;14.00;99.90;;;;;;5027059;28;20106;-72
2021/06/24 04:09:54;;;;;;;9.80;2.75;;;13.90;99.90;;;;;;5027288;28;20619;-74
2021/06/24 04:12:19;;;;;;;8.50;2.83;;;13.90;99.90;;;;;;5027153;28;20030;-72
2021/06/24 04:14:45;;;;;;;5.15;3.22;;;13.90;99.90;;;;;;5042312;28;20116;-73
2021/06/24 04:17:10;;;;;;;5.65;3.15;;;13.90;99.90;;;;;;5026981;28;20048;-72
2021/06/24 04:19:36;;;;;;;4.35;2.17;;;13.90;99.90;;;;;;5026929;28;20030;-71
2021/06/24 04:22:02;;;;;;;4.28;2.55;;;13.90;99.90;;;;;;5042340;28;20026;-73
2021/06/24 04:24:28;;;;;;;7.20;3.38;;;13.90;99.90;;;;;;5042268;28;20514;-73
2021/06/24 04:26:53;;;;;;;3.67;2.38;;;13.90;99.90;;;;;;5042336;28;20046;-72
2021/06/24 04:29:22;;;;;;;4.00;2.60;;;13.90;99.90;;;;;;5027747;28;20029;-72
2021/06/24 04:31:47;;;;;;;4.68;2.53;;;13.90;99.90;;;;;;5025575;28;20030;-71
2021/06/24 04:34:13;;;;;;;5.07;2.28;;;13.80;99.90;;;;;;5026494;28;20054;-71
2021/06/24 04:36:43;;;;;;;7.72;2.30;;;13.90;99.90;;;;;;5026682;28;20044;-73
2021/06/24 04:39:11;;;;;;;4.95;2.58;;;13.90;99.90;;;;;;5026576;28;20058;-71
2021/06/24 04:41:37;;;;;;;7.95;2.75;;;13.90;99.90;;;;;;5026661;28;20041;-73
2021/06/24 04:44:02;;;;;;;4.60;2.92;;;13.90;99.90;;;;;;5026918;28;20086;-71
2021/06/24 04:46:28;;;;;;;5.75;3.03;;;13.90;99.90;;;;;;5026654;28;20057;-72
2021/06/24 04:48:54;;;;;;;10.18;2.58;;;13.90;99.90;;;;;;5041536;28;20394;-70
2021/06/24 04:51:20;;;;;;;8.45;3.35;;;13.90;99.90;;;;;;5026165;28;20042;-70
2021/06/24 04:53:45;;;;;;;4.63;2.40;;;13.90;99.90;;;;;;5026238;28;20069;-71
2021/06/24 04:56:11;;;;;;;3.30;2.30;;;13.90;99.90;;;;;;5026212;28;20072;-71
2021/06/24 04:58:36;;;;;;;3.80;1.92;;;14.00;99.90;;;;;;5026409;28;20037;-71
2021/06/24 05:01:02;;;;;;;9.52;2.33;;;14.00;99.90;;;;;;5026309;28;20049;-73
2021/06/24 05:03:28;;;;;;;8.82;3.55;;;14.00;99.90;;;;;;5041466;28;20029;-72
2021/06/24 05:05:53;;;;;;;5.20;2.60;;;14.10;99.90;;;;;;5026316;28;20497;-73
2021/06/24 05:08:24;;;;;;;5.25;2.30;;;14.10;99.90;;;;;;5024220;28;20060;-73
2021/06/24 05:10:49;;;;;;;16.45;3.38;;;14.10;99.90;;;;;;5026242;28;20026;-72
2021/06/24 05:13:16;;;;;;;11.18;3.95;;;14.10;99.90;;;;;;5025388;28;20544;-72
2021/06/24 05:15:43;;;;;;;8.13;3.38;;;14.10;99.90;;;;;;5030385;28;20461;-73
2021/06/24 05:18:10;;;;;;;4.65;2.53;;;14.10;99.90;;;;;;5025618;28;20026;-71
2021/06/24 05:20:39;;;;;;;7.93;2.20;;;14.20;99.90;;;;;;5028294;28;20026;-72
2021/06/24 05:23:05;;;;;;;6.63;2.63;;;14.20;99.90;;;;;;5045444;28;20030;-71
2021/06/24 05:25:31;;;;;;;7.13;2.70;;;14.20;99.90;;;;;;5042686;28;20025;-70
2021/06/24 05:27:56;;;;;;;3.45;2.28;;;14.20;99.90;;;;;;5030197;28;20064;-73
2021/06/24 05:30:22;;;;;;;4.40;2.17;;;14.20;99.90;;;;;;5033355;28;20034;-72
2021/06/24 05:32:48;;;;;;;3.67;2.17;;;14.30;99.90;;;;;;5009590;28;20034;-73
2021/06/24 05:35:14;;;;;;;11.90;2.65;;;14.30;99.90;;;;;;5005737;28;20097;-74
2021/06/24 05:37:40;;;;;;;2.72;1.80;;;14.40;99.90;;;;;;5033304;28;20060;-72
2021/06/24 05:40:12;;;;;;;2.78;2.00;;;14.40;99.90;;;;;;5024225;28;20030;-75
2021/06/24 05:42:37;;;;;;;4.55;2.40;;;14.50;99.90;;;;;;5024134;28;20026;-73
2021/06/24 05:45:04;;;;;;;8.75;2.72;;;14.50;99.90;;;;;;5025361;28;20041;-74
2021/06/24 05:47:30;;;;;;;5.30;2.80;;;14.50;99.90;;;;;;5025192;28;20022;-73
2021/06/24 05:49:55;;;;;;;6.18;2.70;;;14.60;99.90;;;;;;5025183;28;20037;-74
2021/06/24 05:52:21;;;;;;;4.03;2.17;;;14.70;99.90;;;;;;5024980;28;20050;-74
2021/06/24 05:54:48;;;;;;;4.07;2.08;;;14.70;99.90;;;;;;5025159;28;20042;-74
2021/06/24 05:57:14;;;;;;;1.83;1.50;;;14.70;99.90;;;;;;5025072;28;20018;-74
2021/06/24 05:59:39;;;;;;;3.92;2.40;;;14.80;99.90;;;;;;5024828;28;20056;-73
2021/06/24 06:02:06;;;;;;;7.32;2.90;;;14.80;99.90;;;;;;5025808;28;20029;-73
2021/06/24 06:04:32;;;;;;;3.72;1.98;;;14.80;99.90;;;;;;5028826;28;20049;-72
2021/06/24 06:06:57;;;;;;;3.00;2.17;;;14.80;99.90;;;;;;5041779;28;20060;-73
2021/06/24 06:09:24;;;;;;;3.33;2.30;;;14.80;99.90;;;;;;5044308;28;20022;-75
2021/06/24 06:11:50;;;;;;;4.85;2.63;;;14.80;99.90;;;;;;5036286;28;20099;-72
2021/06/24 06:14:15;;;;;;;2.97;1.92;;;14.90;99.90;;;;;;5024583;28;20567;-72
2021/06/24 06:16:44;;;;;;;3.05;2.00;;;14.90;99.90;;;;;;5023783;28;20041;-73
2021/06/24 06:19:10;;;;;;;3.88;2.47;;;15.00;99.90;;;;;;5023325;28;20092;-73
2021/06/24 06:21:36;;;;;;;3.60;2.15;;;15.00;99.90;;;;;;5025046;28;20390;-72
2021/06/24 06:24:02;;;;;;;6.68;2.40;;;15.00;99.90;;;;;;5025072;28;20089;-74
2021/06/24 06:26:34;;;;;;;5.22;2.70;;;15.00;99.90;;;;;;5025003;28;20040;-75
2021/06/24 06:29:03;;;;;;;1.95;1.77;;;15.10;99.90;;;;;;5023601;28;20030;-72
2021/06/24 06:31:39;;;;;;;2.90;1.90;;;15.10;99.90;;;;;;5029967;28;20037;-75
2021/06/24 06:34:09;;;;;;;3.47;1.95;;;15.20;99.90;;;;;;5027539;28;20036;-74
2021/06/24 06:36:37;;;;;;;5.40;2.20;;;15.20;99.90;;;;;;5044994;28;20105;-73
2021/06/24 06:39:09;;;;;;;11.88;2.38;;;15.30;99.90;;;;;;5045372;28;20022;-73
2021/06/24 06:41:35;;;;;;;5.18;2.00;;;15.40;99.90;;;;;;5045037;28;20025;-73
2021/06/24 06:44:01;;;;;;;2.03;1.40;;;15.40;99.90;;;;;;5043303;28;20029;-74
2021/06/24 06:46:26;;;;;;;12.55;1.98;;;15.40;99.90;;;;;;5044175;28;20033;-72
2021/06/24 06:48:53;;;;;;;5.18;2.63;;;15.40;99.90;;;;;;5044295;28;20021;-74
2021/06/24 06:51:22;;;;;;;4.85;2.10;;;15.50;99.90;;;;;;5044166;28;20069;-73
2021/06/24 06:53:48;;;;;;;3.10;1.60;;;15.50;99.90;;;;;;5042530;28;20553;-73
2021/06/24 06:56:14;;;;;;;7.35;1.95;;;15.50;99.90;;;;;;5044242;28;20041;-76
2021/06/24 06:58:40;;;;;;;2.70;1.50;;;15.40;99.90;;;;;;5044426;28;20028;-72
2021/06/24 07:01:06;;;;;;;4.55;2.00;;;15.50;99.90;;;;;;5044200;28;20060;-74
2021/06/24 07:03:32;;;;;;;4.45;1.60;;;15.60;99.90;;;;;;5044511;28;20021;-72
2021/06/24 07:05:57;;;;;;;3.08;2.05;;;15.70;99.90;;;;;;5044416;28;20081;-75
2021/06/24 07:08:23;;;;;;;2.17;1.38;;;15.60;99.90;;;;;;5043134;28;20282;-72
2021/06/24 07:10:49;;;;;;;2.17;1.35;;;15.60;99.90;;;;;;5042500;28;20470;-73
2021/06/24 07:13:15;;;;;;;3.58;1.90;;;15.70;99.90;;;;;;5042382;28;20017;-73
2021/06/24 07:15:41;;;;;;;4.63;1.98;;;15.70;99.90;;;;;;5042424;28;20037;-74
2021/06/24 07:18:06;;;;;;;2.20;1.60;;;15.80;99.90;;;;;;5043019;28;20065;-74
2021/06/24 07:20:32;;;;;;;2.97;1.33;;;15.90;99.90;;;;;;5042262;28;20081;-74
2021/06/24 07:23:04;;;;;;;3.00;1.65;;;16.00;99.90;;;;;;5039893;28;20037;-73
2021/06/24 07:25:30;;;;;;;3.10;1.50;;;16.00;99.90;;;;;;5043890;28;20021;-74
2021/06/24 07:27:55;;;;;;;2.58;1.48;;;16.20;99.90;;;;;;5043604;28;20022;-74
2021/06/24 07:30:21;;;;;;;3.08;1.63;;;16.20;99.90;;;;;;5043587;28;20033;-74
2021/06/24 07:32:51;;;;;;;2.58;1.73;;;16.30;99.90;;;;;;5043703;28;20022;-73
2021/06/24 07:35:16;;;;;;;5.55;2.05;;;16.50;99.90;;;;;;5043501;28;20100;-71
2021/06/24 07:37:44;;;;;;;2.13;1.77;;;16.60;99.90;;;;;;5042707;28;20029;-73
2021/06/24 07:40:11;;;;;;;3.75;1.65;;;16.80;99.90;;;;;;5042879;28;20052;-75
2021/06/24 07:42:40;;;;;;;1.85;1.27;;;16.90;99.90;;;;;;5045523;28;20029;-72
2021/06/24 07:45:06;;;;;;;6.38;1.85;;;17.00;99.90;;;;;;5046801;28;20030;-74
2021/06/24 07:47:38;;;;;;;3.17;1.52;;;17.10;99.90;;;;;;5046673;28;20021;-72
2021/06/24 07:50:05;;;;;;;2.13;1.50;;;17.10;99.90;;;;;;5045423;28;20056;-74
2021/06/24 07:52:31;;;;;;;4.13;1.77;;;17.10;99.90;;;;;;5033835;28;20061;-73
2021/06/24 07:54:57;;;;;;;2.00;1.38;;;17.10;99.90;;;;;;5039916;28;20038;-73
2021/06/24 07:57:22;;;;;;;7.45;1.40;;;17.20;99.90;;;;;;5046094;28;20139;-72
2021/06/24 07:59:48;;;;;;;3.67;1.50;;;17.20;99.90;;;;;;5046208;28;20075;-73
2021/06/24 08:02:14;;;;;;;5.45;2.35;;;17.30;99.90;;;;;;5046231;28;20055;-72
2021/06/24 08:04:40;;;;;;;2.63;1.88;;;17.20;99.90;;;;;;5031136;28;20029;-72
2021/06/24 08:07:06;;;;;;;3.75;1.77;;;17.20;99.90;;;;;;5025886;28;20030;-72
2021/06/24 08:09:31;;;;;;;2.70;1.70;;;17.20;99.90;;;;;;5026696;28;20034;-73
2021/06/24 08:12:01;;;;;;;3.50;1.25;;;17.20;99.90;;;;;;5026537;28;20094;-73
2021/06/24 08:14:27;;;;;;;2.75;1.83;;;17.20;99.90;;;;;;5026630;28;20082;-72
2021/06/24 08:16:53;;;;;;;4.38;1.42;;;17.20;99.90;;;;;;5025014;28;20084;-71
2021/06/24 08:19:19;;;;;;;3.38;1.08;;;17.10;99.90;;;;;;5025927;28;20041;-73
2021/06/24 08:21:45;;;;;;;3.25;1.58;;;17.20;99.90;;;;;;5026386;28;20037;-75
2021/06/24 08:24:10;;;;;;;1.73;1.25;;;17.30;99.90;;;;;;5026086;28;20037;-73
2021/06/24 08:26:36;;;;;;;3.00;1.38;;;17.20;99.90;;;;;;5025592;28;20474;-73
2021/06/24 08:29:03;;;;;;;5.28;2.03;;;17.20;99.90;;;;;;5024805;28;20025;-76
2021/06/24 08:31:28;;;;;;;2.50;1.58;;;17.10;99.90;;;;;;5023887;28;20030;-74
2021/06/24 08:33:54;;;;;;;3.75;2.15;;;17.10;99.90;;;;;;5025973;28;20091;-75
2021/06/24 08:36:20;;;;;;;6.13;2.25;;;17.00;99.90;;;;;;5025515;28;20034;-73
2021/06/24 08:38:46;;;;;;;1.75;1.20;;;17.10;99.90;;;;;;5025792;28;20022;-73
2021/06/24 08:41:20;;;;;;;1.63;1.20;;;17.10;99.90;;;;;;5024277;28;20026;-76
2021/06/24 08:43:48;;;;;;;6.32;1.60;;;17.10;99.90;;;;;;5032530;28;20026;-73
2021/06/24 08:46:16;;;;;;;2.22;1.65;;;17.10;99.90;;;;;;5033813;28;20033;-72
2021/06/24 08:48:42;;;;;;;4.07;1.30;;;17.10;99.90;;;;;;5033902;28;20042;-73
2021/06/24 08:51:08;;;;;;;3.28;1.95;;;17.10;99.90;;;;;;5036928;28;20488;-73
2021/06/24 08:53:35;;;;;;;3.90;2.17;;;17.10;99.90;;;;;;5038760;28;20026;-73
2021/06/24 08:56:01;;;;;;;4.55;1.48;;;17.10;99.90;;;;;;5035050;28;20039;-74
2021/06/24 08:58:27;;;;;;;1.30;1.10;;;17.20;99.90;;;;;;5044928;28;20041;-73
2021/06/24 09:00:54;;;;;;;2.05;1.73;;;17.30;99.90;;;;;;5045352;28;20064;-73
2021/06/24 09:03:24;;;;;;;2.53;1.80;;;17.40;99.90;;;;;;5043814;28;20029;-73
2021/06/24 09:05:57;;;;;;;2.65;1.70;;;17.30;99.90;;;;;;5043409;28;20029;-72
2021/06/24 09:08:32;;;;;;;4.43;1.65;;;17.40;99.90;;;;;;5044559;28;20365;-72
2021/06/24 09:11:18;;;;;;;11.70;2.33;;;17.40;99.90;;;;;;5046052;28;20022;-72
2021/06/24 09:14:04;;;;;;;8.05;1.60;;;17.50;99.90;;;;;;5045253;28;20025;-75
2021/06/24 09:16:33;;;;;;;4.00;1.30;;;17.60;99.90;;;;;;5045626;28;20057;-73
2021/06/24 09:19:20;;;;;;;2.90;1.98;;;17.60;99.90;;;;;;5046057;28;20851;-73
2021/06/24 09:21:58;;;;;;;2.50;1.42;;;17.70;99.90;;;;;;5045570;28;20030;-72
2021/06/24 09:24:25;;;;;;;2.00;1.45;;;17.80;99.90;;;;;;5045564;28;20022;-71
2021/06/24 09:26:52;;;;;;;1.98;1.50;;;17.90;99.90;;;;;;5045515;28;20041;-73
2021/06/24 09:29:18;;;;;;;2.55;1.40;;;17.90;99.90;;;;;;5045215;28;20022;-74
2021/06/24 09:31:47;;;;;;;2.45;1.50;;;18.00;99.90;;;;;;5044346;28;20029;-71
2021/06/24 09:34:15;;;;;;;7.53;2.20;;;18.10;99.90;;;;;;5045139;28;20021;-74
2021/06/24 09:36:42;;;;;;;8.32;1.45;;;18.00;99.90;;;;;;5044757;28;20034;-71
2021/06/24 09:39:29;;;;;;;3.78;2.28;;;18.10;99.90;;;;;;5043367;28;20450;-70
2021/06/24 09:42:10;;;;;;;8.07;2.20;;;18.00;99.90;;;;;;5043497;28;20053;-75
2021/06/24 09:44:42;;;;;;;2.38;1.60;;;18.10;99.90;;;;;;5043967;28;20113;-73
2021/06/24 09:47:34;;;;;;;3.33;1.40;;;18.10;99.90;;;;;;5041775;28;20041;-73
2021/06/24 09:50:01;;;;;;;2.13;1.85;;;18.20;99.90;;;;;;5027926;28;20069;-73
2021/06/24 09:52:28;;;;;;;4.15;2.05;;;18.30;99.90;;;;;;5034306;28;20065;-72
2021/06/24 09:55:14;;;;;;;3.55;1.90;;;18.40;99.90;;;;;;5041552;28;20038;-71
2021/06/24 09:57:41;;;;;;;2.90;1.83;;;18.50;99.90;;;;;;5040671;28;20032;-75
2021/06/24 10:00:24;;;;;;;4.30;1.90;;;18.60;99.90;;;;;;5043672;28;20022;-72
2021/06/24 10:03:03;;;;;;;2.42;1.75;;;18.80;99.90;;;;;;5042326;28;20033;-73
2021/06/24 10:05:31;;;;;;;3.17;1.88;;;18.90;99.90;;;;;;5042883;28;20029;-74
2021/06/24 10:07:58;;;;;;;2.83;1.92;;;18.90;99.90;;;;;;5034367;28;20030;-70
2021/06/24 10:10:25;;;;;;;1.77;1.35;;;19.10;99.90;;;;;;5029663;28;20623;-70
2021/06/24 10:12:50;;;;;;;3.88;1.48;;;19.10;99.90;;;;;;5042046;28;20438;-73
2021/06/24 10:15:17;;;;;;;3.67;1.92;;;19.10;99.90;;;;;;5041831;28;20037;-72
2021/06/24 10:17:43;;;;;;;1.90;1.35;;;19.10;99.90;;;;;;5043354;28;20494;-72
2021/06/24 10:20:11;;;;;;;3.63;2.15;;;19.20;99.90;;;;;;5027099;28;20026;-70
2021/06/24 10:22:39;;;;;;;6.75;2.30;;;19.20;99.90;;;;;;5021745;28;20018;-73
2021/06/24 10:25:10;;;;;;;3.35;1.63;;;19.30;99.90;;;;;;5022402;28;20022;-74
2021/06/24 10:27:40;;;;;;;11.63;1.83;;;19.40;99.90;;;;;;5022938;28;20032;-73
2021/06/24 10:30:11;;;;;;;4.53;2.72;;;19.30;99.90;;;;;;5022754;28;20490;-72
2021/06/24 10:32:39;;;;;;;5.18;2.58;;;19.30;99.90;;;;;;5022817;28;20061;-73
2021/06/24 10:35:22;;;;;;;3.05;1.88;;;19.40;99.90;;;;;;5022988;28;20172;-73
2021/06/24 10:37:49;;;;;;;8.82;2.17;;;19.60;99.90;;;;;;5022534;28;20026;-73
2021/06/24 10:40:31;;;;;;;3.88;2.83;;;19.90;99.90;;;;;;5020897;28;20037;-73
2021/06/24 10:42:58;;;;;;;2.53;1.98;;;19.90;99.90;;;;;;5022909;28;20090;-72
2021/06/24 10:45:29;;;;;;;5.13;2.15;;;19.90;99.90;;;;;;5022483;28;20604;-72
2021/06/24 10:47:56;;;;;;;4.05;1.98;;;19.80;99.90;;;;;;5023954;28;20119;-72
2021/06/24 10:50:33;;;;;;;4.75;2.70;;;19.80;99.90;;;;;;5030748;28;20387;-72
2021/06/24 10:53:21;;;;;;;3.60;2.10;;;19.70;99.90;;;;;;5002515;28;20048;-72
2021/06/24 10:55:50;;;;;;;3.80;2.70;;;19.70;99.90;;;;;;5002094;28;20161;-71
2021/06/24 10:58:19;;;;;;;8.18;2.40;;;19.70;99.90;;;;;;5002336;28;20066;-74
2021/06/24 11:00:49;;;;;;;7.57;2.95;;;19.80;99.90;;;;;;5001928;28;20027;-70
2021/06/24 11:03:26;;;;;;;7.60;2.92;;;19.90;99.90;;;;;;5002722;28;20023;-71
2021/06/24 11:05:54;;;;;;;7.28;3.42;;;19.80;99.90;;;;;;5003263;28;20034;-73
2021/06/24 11:08:30;;;;;;;4.07;2.38;;;19.70;99.90;;;;;;5001525;28;20103;-72
2021/06/24 11:11:10;;;;;;;5.10;2.88;;;19.70;99.90;;;;;;5002435;28;20029;-73
2021/06/24 11:16:27;;;;;;;6.43;2.95;;;19.80;99.90;;;;;;5002396;28;20048;-76
2021/06/24 11:19:07;;;;;;;11.48;3.25;;;19.80;99.90;;;;;;5005706;28;20053;-71
2021/06/24 11:21:32;;;;;;;4.05;2.53;;;19.70;99.90;;;;;;5006044;28;20109;-72
2021/06/24 11:24:08;;;;;;;6.55;3.13;;;19.70;99.90;;;;;;5006848;28;20030;-74
2021/06/24 11:26:40;;;;;;;8.65;3.47;;;19.70;99.90;;;;;;5006722;28;20053;-72
2021/06/24 11:29:09;;;;;;;7.40;3.72;;;19.70;99.90;;;;;;5006444;28;20026;-72
2021/06/24 11:36:45;;;;;;;7.07;4.10;;;19.50;99.90;;;;;;5006815;28;20491;-72
2021/06/24 11:39:11;;;;;;;8.90;3.90;;;19.50;99.90;;;;;;5021362;28;20102;-71
2021/06/24 11:41:36;;;;;;;9.45;3.67;;;19.40;99.90;;;;;;5021872;28;20034;-76
2021/06/24 11:44:06;;;;;;;6.30;3.65;;;19.20;99.90;;;;;;5012564;28;20034;-73
2021/06/24 11:46:36;;;;;;;10.65;3.63;;;19.10;99.90;;;;;;5026216;28;20025;-72
2021/06/24 12:01:49;;;;;;;2.50;1.70;;;18.90;99.90;;;;;;5025772;28;20041;-72
2021/06/24 12:03:21;;;;;;;5.35;2.10;;;19.00;99.90;;;;;;5017066;28;20072;-74
2021/06/24 12:05:51;;;;;;;3.63;2.38;;;19.10;99.90;;;;;;5023182;28;20045;-72
2021/06/24 12:08:22;;;;;;;4.00;2.10;;;19.10;99.90;;;;;;5026032;28;20017;-73
2021/06/24 12:10:51;;;;;;;4.18;2.17;;;19.20;99.90;;;;;;5023559;28;20038;-74
2021/06/24 12:13:34;;;;;;;2.40;2.08;;;19.40;99.90;;;;;;5026004;28;20098;-72
2021/06/24 12:16:00;;;;;;;7.90;2.35;;;19.60;99.90;;;;;;5025848;28;20369;-72
2021/06/24 12:18:43;;;;;;;3.63;2.20;;;19.70;99.90;;;;;;5025197;28;20033;-71
2021/06/24 12:21:14;;;;;;;2.95;1.90;;;19.80;99.90;;;;;;5025677;28;20038;-72
2021/06/24 12:23:44;;;;;;;3.78;2.38;;;19.80;99.90;;;;;;5025489;28;20029;-73
2021/06/24 12:26:12;;;;;;;3.80;2.03;;;19.90;99.90;;;;;;5025462;28;20086;-74
2021/06/24 12:28:38;;;;;;;7.15;2.30;;;19.80;99.90;;;;;;5025098;28;20036;-73
2021/06/24 12:31:06;;;;;;;3.53;2.00;;;19.60;99.90;;;;;;5025146;28;20086;-74
2021/06/24 12:33:34;;;;;;;4.13;2.03;;;19.60;99.90;;;;;;5025517;28;20578;-72
2021/06/24 12:36:00;;;;;;;4.65;2.20;;;19.60;99.90;;;;;;5025495;28;20040;-73
2021/06/24 12:38:28;;;;;;;1.60;1.33;;;19.50;99.90;;;;;;5024555;28;20038;-70
2021/06/24 12:41:06;;;;;;;4.05;1.58;;;19.60;99.90;;;;;;5023648;28;20029;-71
2021/06/24 12:43:34;;;;;;;2.20;1.65;;;19.80;99.90;;;;;;5024116;28;20778;-73
2021/06/24 12:46:07;;;;;;;3.00;1.90;;;19.90;99.90;;;;;;5023012;28;20042;-72
2021/06/24 12:48:37;;;;;;;3.42;1.83;;;19.90;99.90;;;;;;5024403;28;20030;-74
2021/06/24 12:51:23;;;;;;;7.20;2.30;;;20.00;99.90;;;;;;5024509;28;20022;-75
2021/06/24 12:53:53;;;;;;;3.00;1.92;;;20.00;99.90;;;;;;5024555;28;20029;-71
2021/06/24 12:56:33;;;;;;;4.43;2.00;;;20.10;99.90;;;;;;5023201;28;20038;-72
2021/06/24 12:59:09;;;;;;;4.80;1.35;;;20.20;99.90;;;;;;5024909;28;20026;-72
2021/06/24 13:01:38;;;;;;;3.78;1.88;;;20.20;99.90;;;;;;5024594;28;20026;-74
2021/06/24 13:04:11;;;;;;;3.38;1.10;;;20.40;99.90;;;;;;5024759;28;20030;-71
2021/06/24 13:06:48;;;;;;;2.35;1.48;;;20.50;99.90;;;;;;5024566;28;20617;-72
2021/06/24 13:09:15;;;;;;;5.43;1.65;;;20.70;99.90;;;;;;5023036;28;20124;-70